Swan, Indiana
Current Conditions -  °F | °C
As of 4:35 PM on Saturday 22 Nov 2014 (Local Time) from KGWB Reporting Station
Overcast Overcast  
Wind Chill: 50°   Ceiling: 2900
Heat Index: 50°   Visibility: 10mi
Dew Point: 41°   Wind: 13mph
Humidity: 71%   Direction: 200°SSW
Pressure: 29.97"   Gusts: 18mph
Location:  41.3048°N, 85.2502°W
Report Text: KGWB 222135Z AUTO 20011G16KT 10SM BKN029 BKN036 OVC043 10/05 A2997 RMK AO2
Loading
Personal Weather Stations






























Interactive Weather Map New forecast layout! Learn more

10-Day Weather Forecast

Advertisements
Track Severe Weather on mobile